createdAt,value
2022-08-04T00:02:03.784Z,103249.94
2022-08-04T00:04:43.215Z,103230.50
2022-08-04T00:07:20.296Z,103204.81
2022-08-04T00:10:08.945Z,103198.75
2022-08-04T00:12:45.143Z,103196.91
2022-08-04T00:15:16.705Z,103201.22
2022-08-04T00:17:59.603Z,103191.38
2022-08-04T00:20:32.187Z,103196.75
2022-08-04T00:23:01.796Z,103187.94
2022-08-04T00:25:29.717Z,103194.25
2022-08-04T00:27:56.483Z,103181.13
2022-08-04T00:30:24.210Z,103191.09
2022-08-04T00:32:52.237Z,103201.84
2022-08-04T00:35:19.446Z,103210.88
2022-08-04T00:37:46.593Z,103221.69
2022-08-04T00:40:28.921Z,103234.25
2022-08-04T00:43:08.689Z,103258.38
2022-08-04T00:46:15.424Z,103273.50
2022-08-04T00:48:58.849Z,103304.69
2022-08-04T00:51:42.147Z,103320.81
2022-08-04T00:54:20.998Z,103334.19
2022-08-04T00:57:34.096Z,103363.63
2022-08-04T01:00:12.321Z,103398.28
2022-08-04T01:02:51.718Z,103431.19
2022-08-04T01:05:38.237Z,103467.59
2022-08-04T01:08:34.406Z,103497.66
2022-08-04T01:11:56.721Z,103528.78
2022-08-04T01:14:39.448Z,103576.72
2022-08-04T01:17:21.826Z,103609.53
2022-08-04T01:20:08.679Z,103637.16
2022-08-04T01:23:35.176Z,103667.38
2022-08-04T01:26:42.379Z,103703.81
2022-08-04T01:29:16.467Z,103716.41
2022-08-04T01:31:49.281Z,103743.00
2022-08-04T01:34:19.166Z,103760.72
2022-08-04T01:36:57.687Z,103782.00
2022-08-04T01:39:40.535Z,103802.47
2022-08-04T01:42:09.940Z,103827.25
2022-08-04T01:44:39.556Z,103842.41
2022-08-04T01:47:08.778Z,103851.28
2022-08-04T01:49:40.559Z,103867.28
2022-08-04T01:52:10.260Z,103869.09
2022-08-04T01:54:39.487Z,103877.97
2022-08-04T01:57:37.111Z,103892.22
2022-08-04T01:59:56.238Z,103894.16
2022-08-04T02:02:24.473Z,103910.09
2022-08-04T02:04:52.104Z,103928.78
2022-08-04T02:07:43.225Z,103942.09
2022-08-04T02:10:41.306Z,103954.56
2022-08-04T02:13:28.201Z,103973.25
2022-08-04T02:16:16.615Z,103984.78
2022-08-04T02:18:50.289Z,103996.31
2022-08-04T02:21:20.251Z,104010.53
2022-08-04T02:23:54.055Z,104026.53
2022-08-04T02:26:26.101Z,104027.41
2022-08-04T02:29:19.419Z,104034.56
2022-08-04T02:31:49.350Z,104040.75
2022-08-04T02:34:29.037Z,104041.72
2022-08-04T02:36:59.146Z,104048.84
2022-08-04T02:39:41.481Z,104049.72
2022-08-04T02:42:16.695Z,104045.31
2022-08-04T02:44:47.368Z,104047.09
2022-08-04T02:47:14.984Z,104038.28
2022-08-04T02:49:45.616Z,104032.00
2022-08-04T02:52:15.205Z,104028.44
2022-08-04T02:54:44.515Z,104021.31
2022-08-04T02:57:15.450Z,104019.69
2022-08-04T03:00:10.309Z,104016.13
2022-08-04T03:02:49.288Z,104006.38
2022-08-04T03:05:25.296Z,104002.81
2022-08-04T03:08:13.762Z,104010.81
2022-08-04T03:11:05.745Z,104004.53
2022-08-04T03:14:10.581Z,103992.13
2022-08-04T03:17:02.974Z,103994.81
2022-08-04T03:19:48.873Z,103991.25
2022-08-04T03:22:27.628Z,103985.03
2022-08-04T03:25:29.742Z,103973.53
2022-08-04T03:28:17.515Z,103966.34
2022-08-04T03:31:18.357Z,103955.72
2022-08-04T03:34:00.102Z,103953.00
2022-08-04T03:36:41.995Z,103929.03
2022-08-04T03:39:27.755Z,103927.19
2022-08-04T03:42:16.101Z,103914.72
2022-08-04T03:45:24.564Z,103898.75
2022-08-04T03:48:00.382Z,103877.47
2022-08-04T03:50:42.166Z,103873.91
2022-08-04T03:53:27.098Z,103858.78
2022-08-04T03:56:41.493Z,103848.09
2022-08-04T03:59:24.704Z,103833.84
2022-08-04T04:02:39.973Z,103818.72
2022-08-04T04:05:29.386Z,103789.38
2022-08-04T04:08:27.481Z,103768.81
2022-08-04T04:11:19.205Z,103747.47
2022-08-04T04:13:55.450Z,103735.78
2022-08-04T04:16:44.000Z,103698.25
2022-08-04T04:19:29.527Z,103655.38
2022-08-04T04:22:08.784Z,103605.44
2022-08-04T04:24:45.275Z,103544.03
2022-08-04T04:27:27.325Z,103489.69
2022-08-04T04:30:16.263Z,103435.28
2022-08-04T04:33:07.862Z,103382.56
2022-08-04T04:36:13.826Z,103315.56
2022-08-04T04:39:02.765Z,103255.56
2022-08-04T04:41:46.981Z,103216.19
2022-08-04T04:44:48.941Z,103148.63
2022-08-04T04:48:07.632Z,103101.75
2022-08-04T04:50:36.856Z,103033.75
2022-08-04T04:53:31.046Z,102947.31
2022-08-04T04:56:11.829Z,102861.66
2022-08-04T04:58:39.983Z,102783.78
2022-08-04T05:01:26.223Z,102748.84
2022-08-04T05:04:27.002Z,102726.34
2022-08-04T05:07:10.638Z,102719.19
2022-08-04T05:09:55.988Z,102669.81
2022-08-04T05:14:31.694Z,102572.47
2022-08-04T05:15:30.478Z,102447.78
2022-08-04T05:18:00.970Z,102307.00
2022-08-04T05:20:38.848Z,102236.41
2022-08-04T05:23:19.597Z,102194.13
2022-08-04T05:25:59.677Z,102195.94
2022-08-04T05:28:29.754Z,102160.03
2022-08-04T05:31:04.147Z,102110.31
2022-08-04T05:33:42.740Z,102070.97
2022-08-04T05:36:35.299Z,102034.63
2022-08-04T05:39:13.359Z,101933.69
2022-08-04T05:41:45.502Z,101905.59
2022-08-04T05:44:19.807Z,101786.97
2022-08-04T05:46:54.335Z,101740.13
2022-08-04T05:49:27.021Z,101697.97
2022-08-04T05:51:56.891Z,101647.78
2022-08-04T05:54:24.666Z,101604.94
2022-08-04T05:56:53.701Z,101587.22
2022-08-04T05:59:21.068Z,101574.69
2022-08-04T06:01:56.301Z,101565.78
2022-08-04T06:04:33.452Z,101573.22
2022-08-04T06:07:00.358Z,101574.81
2022-08-04T06:09:27.441Z,101580.78
2022-08-04T06:12:04.003Z,101567.00
2022-08-04T06:14:36.001Z,101539.09
2022-08-04T06:17:06.086Z,101525.84
2022-08-04T06:20:02.931Z,101494.03
2022-08-04T06:22:44.675Z,101477.97
2022-08-04T06:25:15.749Z,101464.47
2022-08-04T06:27:43.280Z,101438.88
2022-08-04T06:30:14.758Z,101407.94
2022-08-04T06:32:48.051Z,101404.50
2022-08-04T06:35:19.864Z,101388.66
2022-08-04T06:37:48.213Z,101379.38
2022-08-04T06:40:31.231Z,101374.84
2022-08-04T06:43:06.509Z,101372.91
2022-08-04T06:45:37.157Z,101363.31
2022-08-04T06:48:06.429Z,101367.06
2022-08-04T06:51:32.308Z,101362.59
2022-08-04T06:53:25.411Z,101362.16
2022-08-04T06:55:53.459Z,101362.88
2022-08-04T06:58:21.987Z,101364.84
2022-08-04T07:00:50.002Z,101366.94
2022-08-04T07:03:19.235Z,101367.16
2022-08-04T07:05:49.755Z,101368.81
2022-08-04T07:08:17.273Z,101372.69
2022-08-04T07:10:45.334Z,101377.00
2022-08-04T07:13:12.581Z,101369.94
2022-08-04T07:15:44.108Z,101368.53
2022-08-04T07:18:11.087Z,101373.66
2022-08-04T07:20:42.894Z,101362.16
2022-08-04T07:23:12.009Z,101362.47
2022-08-04T07:25:59.570Z,101359.06
2022-08-04T07:28:28.148Z,101358.63
2022-08-04T07:30:56.804Z,101354.31
2022-08-04T07:33:24.785Z,101346.09
2022-08-04T07:36:05.986Z,101347.53
2022-08-04T07:38:48.709Z,101342.66
2022-08-04T07:41:42.530Z,101336.84
2022-08-04T07:44:14.345Z,101326.53
2022-08-04T07:46:41.706Z,101320.34
2022-08-04T07:49:08.769Z,101320.00
2022-08-04T07:51:36.826Z,101322.75
2022-08-04T07:54:05.512Z,101317.41
2022-08-04T07:56:35.437Z,101305.31
2022-08-04T07:59:02.686Z,101291.69
2022-08-04T08:01:30.344Z,101280.91
2022-08-04T08:03:58.680Z,101285.16
2022-08-04T08:06:33.191Z,101289.53
2022-08-04T08:09:14.342Z,101279.88
2022-08-04T08:12:38.495Z,101285.25
2022-08-04T08:14:38.333Z,101276.75
2022-08-04T08:17:05.481Z,101280.84
2022-08-04T08:19:33.563Z,101284.47
2022-08-04T08:22:01.984Z,101267.94
2022-08-04T08:24:31.209Z,101260.44
2022-08-04T08:27:00.136Z,101261.84
2022-08-04T08:29:29.501Z,101265.97
2022-08-04T08:32:01.393Z,101257.94
2022-08-04T08:34:31.339Z,101255.56
2022-08-04T08:37:23.600Z,101260.25
2022-08-04T08:40:04.464Z,101254.31
2022-08-04T08:42:47.540Z,101260.13
2022-08-04T08:45:32.925Z,101263.88
2022-08-04T08:48:33.396Z,101261.63
2022-08-04T08:51:25.027Z,101260.53
2022-08-04T08:54:15.930Z,101257.75
2022-08-04T08:57:03.279Z,101260.25
2022-08-04T08:59:57.890Z,101271.47
2022-08-04T09:02:34.307Z,101266.41
2022-08-04T09:05:29.075Z,101275.00
2022-08-04T09:08:26.433Z,101276.16
2022-08-04T09:10:57.695Z,101270.69
2022-08-04T09:13:34.083Z,101271.16
2022-08-04T09:16:27.630Z,101264.72
2022-08-04T09:19:02.333Z,101264.78
2022-08-04T09:21:36.194Z,101272.38
2022-08-04T09:24:34.758Z,101280.59
2022-08-04T09:27:09.927Z,101275.56
2022-08-04T09:29:43.419Z,101280.31
2022-08-04T09:32:32.156Z,101274.03
2022-08-04T09:35:13.311Z,101274.47
2022-08-04T09:37:48.602Z,101284.69
2022-08-04T09:40:31.656Z,101270.88
2022-08-04T09:43:59.360Z,101284.88
2022-08-04T09:46:23.530Z,101277.72
2022-08-04T09:49:10.889Z,101284.88
2022-08-04T09:51:59.763Z,101288.38
2022-08-04T09:54:38.886Z,101290.81
2022-08-04T09:57:45.829Z,101285.88
2022-08-04T10:00:17.796Z,101279.78
2022-08-04T10:02:52.155Z,101272.44
2022-08-04T10:05:26.327Z,101281.91
2022-08-04T10:08:35.103Z,101282.50
2022-08-04T10:11:14.934Z,101288.69
2022-08-04T10:14:01.569Z,101283.72
2022-08-04T10:16:54.489Z,101276.69
2022-08-04T10:19:26.785Z,101274.09
2022-08-04T10:22:29.088Z,101277.59
2022-08-04T10:26:03.101Z,101271.88
2022-08-04T10:28:09.118Z,101268.69
2022-08-04T10:30:40.700Z,101274.53
2022-08-04T10:33:44.987Z,101282.28
2022-08-04T10:36:17.579Z,101281.38
2022-08-04T10:38:59.830Z,101278.72
2022-08-04T10:41:45.367Z,101284.75
2022-08-04T10:44:23.766Z,101283.06
2022-08-04T10:46:56.040Z,101279.53
2022-08-04T10:49:31.588Z,101275.44
2022-08-04T10:52:11.146Z,101273.94
2022-08-04T10:54:49.993Z,101282.56
2022-08-04T10:57:40.815Z,101270.94
2022-08-04T11:00:14.845Z,101283.72
2022-08-04T11:02:54.010Z,101282.13
2022-08-04T11:05:46.868Z,101276.84
2022-08-04T11:08:21.529Z,101290.84
2022-08-04T11:11:00.670Z,101295.56
2022-08-04T11:13:45.047Z,101298.91
2022-08-04T11:16:26.594Z,101308.13
2022-08-04T11:19:20.740Z,101308.78
2022-08-04T11:21:56.659Z,101322.41
2022-08-04T11:24:34.873Z,101322.25
2022-08-04T11:27:06.899Z,101325.56
2022-08-04T11:30:01.384Z,101318.88
2022-08-04T11:32:37.619Z,101328.69
2022-08-04T11:35:09.536Z,101332.44
2022-08-04T11:37:46.879Z,101334.88
2022-08-04T11:40:27.921Z,101347.25
2022-08-04T11:43:02.464Z,101344.88
2022-08-04T11:45:38.603Z,101344.22
2022-08-04T11:48:11.313Z,101344.56
2022-08-04T11:50:53.443Z,101342.84
2022-08-04T11:53:24.569Z,101340.66
2022-08-04T11:56:08.174Z,101346.41
2022-08-04T11:58:38.098Z,101349.28
2022-08-04T12:01:32.967Z,101363.63
2022-08-04T12:04:10.306Z,101356.28
2022-08-04T12:07:15.246Z,101361.81
2022-08-04T12:10:10.008Z,101368.28
2022-08-04T12:13:14.605Z,101380.50
2022-08-04T12:16:02.429Z,101380.53
2022-08-04T12:18:45.593Z,101384.06
2022-08-04T12:21:37.680Z,101395.22
2022-08-04T12:24:08.580Z,101400.66
2022-08-04T12:26:41.548Z,101398.22
2022-08-04T12:29:11.879Z,101406.88
2022-08-04T12:31:47.352Z,101411.25
2022-08-04T12:34:40.992Z,101418.50
2022-08-04T12:37:35.419Z,101424.56
2022-08-04T12:40:27.635Z,101421.56
2022-08-04T12:42:59.692Z,101425.66
2022-08-04T12:45:27.472Z,101424.03
2022-08-04T12:47:57.909Z,101423.81
2022-08-04T12:50:25.519Z,101430.28
2022-08-04T12:53:04.094Z,101428.50
2022-08-04T12:55:34.482Z,101432.63
2022-08-04T12:58:04.327Z,101437.88
2022-08-04T13:00:40.556Z,101436.50
2022-08-04T13:03:11.939Z,101436.81
2022-08-04T13:05:42.871Z,101431.19
2022-08-04T13:08:11.445Z,101446.44
2022-08-04T13:10:46.877Z,101450.47
2022-08-04T13:13:17.447Z,101458.44
2022-08-04T13:15:56.591Z,101465.06
2022-08-04T13:18:29.564Z,101465.84
2022-08-04T13:21:19.996Z,101471.06
2022-08-04T13:24:10.654Z,101470.31
2022-08-04T13:26:55.955Z,101480.41
2022-08-04T13:29:59.201Z,101480.63
2022-08-04T13:32:22.292Z,101492.47
2022-08-04T13:34:53.736Z,101477.03
2022-08-04T13:37:26.754Z,101474.03
2022-08-04T13:39:56.577Z,101475.56
2022-08-04T13:42:26.888Z,101473.50
2022-08-04T13:44:57.216Z,101471.44
2022-08-04T13:47:29.142Z,101465.59
2022-08-04T13:50:30.202Z,101464.59
2022-08-04T13:52:59.885Z,101459.19
2022-08-04T13:55:32.675Z,101464.88
2022-08-04T13:58:10.664Z,101448.53
2022-08-04T14:00:45.296Z,101441.00
2022-08-04T14:03:24.383Z,101451.47
2022-08-04T14:06:10.645Z,101448.84
2022-08-04T14:08:47.675Z,101443.13
2022-08-04T14:12:10.703Z,101441.34
2022-08-04T14:14:23.448Z,101445.50
2022-08-04T14:17:01.573Z,101449.59
2022-08-04T14:19:48.505Z,101457.00
2022-08-04T14:22:27.678Z,101444.31
2022-08-04T14:25:16.590Z,101454.41
2022-08-04T14:27:48.468Z,101457.16
2022-08-04T14:30:24.402Z,101447.16
2022-08-04T14:34:03.126Z,101452.81
2022-08-04T14:35:59.604Z,101450.47
2022-08-04T14:38:48.784Z,101452.03
2022-08-04T14:41:17.914Z,101449.59
2022-08-04T14:43:51.556Z,101453.22
2022-08-04T14:46:18.539Z,101449.81
2022-08-04T14:49:04.587Z,101460.97
2022-08-04T14:51:55.283Z,101455.16
2022-08-04T14:54:31.328Z,101449.09
2022-08-04T14:57:02.039Z,101454.00
2022-08-04T14:59:41.632Z,101465.13
2022-08-04T15:02:29.933Z,101466.25
2022-08-04T15:04:57.783Z,101471.91
2022-08-04T15:07:25.552Z,101460.81
2022-08-04T15:09:52.734Z,101466.56
2022-08-04T15:12:20.323Z,101465.19
2022-08-04T15:14:47.252Z,101462.69
2022-08-04T15:17:29.688Z,101458.94
2022-08-04T15:19:58.442Z,101463.47
2022-08-04T15:22:25.454Z,101476.16
2022-08-04T15:24:55.397Z,101468.63
2022-08-04T15:27:27.294Z,101463.88
2022-08-04T15:30:00.903Z,101473.34
2022-08-04T15:32:41.772Z,101465.97
2022-08-04T15:35:12.583Z,101477.84
2022-08-04T15:37:57.664Z,101482.41
2022-08-04T15:40:56.439Z,101473.66
2022-08-04T15:43:42.193Z,101477.91
2022-08-04T15:46:44.288Z,101488.81
2022-08-04T15:48:55.956Z,101486.25
2022-08-04T15:51:31.823Z,101503.97
2022-08-04T15:54:03.688Z,101492.97
2022-08-04T15:56:35.074Z,101502.31
2022-08-04T15:59:01.859Z,101493.34
2022-08-04T16:01:28.661Z,101498.19
2022-08-04T16:03:59.841Z,101508.56
2022-08-04T16:06:29.626Z,101516.31
2022-08-04T16:09:05.045Z,101516.56
2022-08-04T16:11:37.266Z,101532.66
2022-08-04T16:14:04.728Z,101532.22
2022-08-04T16:16:46.770Z,101529.59
2022-08-04T16:19:34.958Z,101528.50
2022-08-04T16:22:04.081Z,101539.91
2022-08-04T16:24:36.472Z,101547.59
2022-08-04T16:27:08.657Z,101547.03
2022-08-04T16:29:46.853Z,101547.84
2022-08-04T16:32:16.729Z,101558.22
2022-08-04T16:34:58.846Z,101558.97
2022-08-04T16:37:37.896Z,101564.38
2022-08-04T16:40:41.064Z,101558.69
2022-08-04T16:43:16.688Z,101565.59
2022-08-04T16:45:46.142Z,101570.94
2022-08-04T16:48:15.636Z,101569.09
2022-08-04T16:50:50.818Z,101580.22
2022-08-04T16:54:02.598Z,101579.81
2022-08-04T16:56:10.866Z,101586.00
2022-08-04T16:58:37.866Z,101589.78
2022-08-04T17:01:28.411Z,101581.75
2022-08-04T17:04:04.823Z,101583.78
2022-08-04T17:06:38.046Z,101590.41
2022-08-04T17:09:17.807Z,101594.13
2022-08-04T17:11:46.594Z,101589.59
2022-08-04T17:14:13.845Z,101602.31
2022-08-04T17:16:43.275Z,101610.53
2022-08-04T17:19:24.365Z,101621.31
2022-08-04T17:22:02.985Z,101625.72
2022-08-04T17:24:33.555Z,101629.25
2022-08-04T17:27:00.893Z,101627.66
2022-08-04T17:29:42.946Z,101630.44
2022-08-04T17:32:21.024Z,101630.72
2022-08-04T17:34:50.629Z,101628.41
2022-08-04T17:37:39.183Z,101634.13
2022-08-04T17:40:17.916Z,101638.47
2022-08-04T17:43:01.046Z,101642.88
2022-08-04T17:48:24.906Z,101644.38
2022-08-04T17:50:52.106Z,101656.84
2022-08-04T17:54:01.776Z,101651.69
2022-08-04T17:56:51.554Z,101656.16
2022-08-04T17:59:55.566Z,101659.78
2022-08-04T18:02:32.603Z,101667.88
2022-08-04T18:05:06.230Z,101678.63
2022-08-04T18:08:39.842Z,101682.91
2022-08-04T18:10:44.644Z,101691.47
2022-08-04T18:13:21.737Z,101695.16
2022-08-04T18:15:51.153Z,101712.56
2022-08-04T18:18:23.345Z,101726.59
2022-08-04T18:20:50.710Z,101738.84
2022-08-04T18:23:17.579Z,101747.97
2022-08-04T18:25:51.403Z,101750.88
2022-08-04T18:28:26.614Z,101751.38
2022-08-04T18:30:55.201Z,101747.88
2022-08-04T18:33:37.615Z,101752.84
2022-08-04T18:36:34.779Z,101761.22
2022-08-04T18:38:58.175Z,101764.38
2022-08-04T18:41:27.680Z,101774.41
2022-08-04T18:43:57.934Z,101777.34
2022-08-04T18:46:26.966Z,101792.88
2022-08-04T18:48:54.634Z,101833.41
2022-08-04T18:51:25.147Z,101859.22
2022-08-04T18:57:24.465Z,101903.88
2022-08-04T18:59:33.719Z,101925.94
2022-08-04T19:02:16.469Z,101922.06
2022-08-04T19:04:44.769Z,101914.88
2022-08-04T19:07:29.448Z,101912.13
2022-08-04T19:09:59.738Z,101923.84
2022-08-04T19:12:28.522Z,101946.97
2022-08-04T19:15:08.752Z,101964.88
2022-08-04T19:17:52.809Z,101963.72
2022-08-04T19:20:25.463Z,101951.25
2022-08-04T19:24:26.252Z,101937.53
2022-08-04T19:26:02.680Z,101927.53
2022-08-04T19:28:31.889Z,101933.50
2022-08-04T19:31:02.013Z,101943.09
2022-08-04T19:33:55.953Z,101951.31
2022-08-04T19:36:17.285Z,101946.47
2022-08-04T19:38:44.928Z,101938.78
2022-08-04T19:41:14.642Z,101943.44
2022-08-04T19:43:43.906Z,101949.22
2022-08-04T19:46:11.319Z,101964.75
2022-08-04T19:48:40.206Z,101977.28
2022-08-04T19:51:07.819Z,101977.34
2022-08-04T19:53:37.498Z,101991.56
2022-08-04T19:56:05.376Z,101999.28
2022-08-04T19:58:32.157Z,101998.97
2022-08-04T20:00:58.983Z,101995.25
2022-08-04T20:06:13.208Z,101997.47
2022-08-04T20:08:48.343Z,102003.16
2022-08-04T20:11:16.594Z,102009.53
2022-08-04T20:13:45.303Z,102015.72
2022-08-04T20:16:29.188Z,102018.63
2022-08-04T20:19:03.118Z,102031.13
2022-08-04T20:21:53.486Z,102044.63
2022-08-04T20:24:37.791Z,102059.03
2022-08-04T20:27:09.003Z,102068.13
2022-08-04T20:29:43.166Z,102080.84
2022-08-04T20:32:10.471Z,102097.06
2022-08-04T20:34:41.547Z,102106.97
2022-08-04T20:37:15.328Z,102119.50
2022-08-04T20:39:42.679Z,102135.69
2022-08-04T20:42:11.515Z,102160.38
2022-08-04T20:44:46.237Z,102172.81
2022-08-04T20:47:13.260Z,102179.13
2022-08-04T20:49:41.000Z,102189.81
2022-08-04T20:52:16.434Z,102202.31
2022-08-04T20:54:48.609Z,102230.75
2022-08-04T20:57:16.845Z,102236.06
2022-08-04T20:59:44.145Z,102253.97
2022-08-04T21:02:26.855Z,102278.75
2022-08-04T21:04:53.986Z,102294.63
2022-08-04T21:07:22.183Z,102308.16
2022-08-04T21:09:50.695Z,102320.75
2022-08-04T21:12:28.566Z,102334.19
2022-08-04T21:15:01.534Z,102341.31
2022-08-04T21:17:59.018Z,102366.25
2022-08-04T21:20:28.517Z,102387.53
2022-08-04T21:22:59.863Z,102410.88
2022-08-04T21:25:29.724Z,102429.81
2022-08-04T21:27:58.936Z,102450.50
2022-08-04T21:30:31.020Z,102474.66
2022-08-04T21:33:04.381Z,102502.97
2022-08-04T21:35:37.861Z,102524.31
2022-08-04T21:38:16.292Z,102550.00
2022-08-04T21:41:01.943Z,102575.78
2022-08-04T21:43:46.257Z,102580.19
2022-08-04T21:46:13.077Z,102598.56
2022-08-04T21:48:42.314Z,102631.72
2022-08-04T21:51:56.737Z,102669.84
2022-08-04T21:54:05.658Z,102724.66
2022-08-04T21:56:33.354Z,102760.19
2022-08-04T21:59:00.241Z,102806.25
2022-08-04T22:01:50.009Z,102863.63
2022-08-04T22:04:14.324Z,102933.38
2022-08-04T22:06:42.068Z,102983.59
2022-08-04T22:09:18.602Z,103034.72
2022-08-04T22:11:50.618Z,103069.03
2022-08-04T22:14:27.407Z,103098.91
2022-08-04T22:16:57.649Z,103124.34
2022-08-04T22:19:40.692Z,103125.16
2022-08-04T22:22:12.678Z,103120.66
2022-08-04T22:24:41.068Z,103115.34
2022-08-04T22:27:12.022Z,103109.06
2022-08-04T22:29:39.360Z,103101.06
2022-08-04T22:32:11.692Z,103099.28
2022-08-04T22:34:45.378Z,103089.56
2022-08-04T22:37:12.730Z,103096.69
2022-08-04T22:39:56.438Z,103101.88
2022-08-04T22:42:24.171Z,103089.31
2022-08-04T22:44:52.215Z,103072.34
2022-08-04T22:47:20.369Z,103046.56
2022-08-04T22:50:01.586Z,103021.81
2022-08-04T22:52:37.149Z,103007.81
2022-08-04T22:55:22.898Z,103012.38
2022-08-04T22:58:04.544Z,103007.91
2022-08-04T23:00:31.979Z,103017.53
2022-08-04T23:02:58.873Z,103008.56
2022-08-04T23:05:35.535Z,103013.69
2022-08-04T23:08:05.091Z,102987.91
2022-08-04T23:10:32.452Z,102975.38
2022-08-04T23:13:03.975Z,102974.41
2022-08-04T23:15:33.816Z,102962.75
2022-08-04T23:18:01.313Z,102935.31
2022-08-04T23:20:32.690Z,102923.81
2022-08-04T23:23:00.676Z,102914.06
2022-08-04T23:26:08.428Z,102903.38
2022-08-04T23:28:30.977Z,102904.28
2022-08-04T23:30:57.735Z,102911.47
2022-08-04T23:33:24.949Z,102896.72
2022-08-04T23:36:11.871Z,102920.91
2022-08-04T23:38:39.219Z,102936.13
2022-08-04T23:41:13.542Z,102964.56
2022-08-04T23:43:49.576Z,102998.41
2022-08-04T23:46:22.975Z,103028.44
2022-08-04T23:48:51.043Z,103052.38
2022-08-04T23:51:19.464Z,103068.34
2022-08-04T23:54:02.427Z,103111.53
2022-08-04T23:56:34.736Z,103116.63
2022-08-04T23:59:03.653Z,103111.28
